Date,TemperatureHighF,TemperatureAvgF,TemperatureLowF,DewpointHighF,DewpointAvgF,DewpointLowF,HumidityHigh,HumidityAvg,HumidityLow,PressureMaxIn,PressureMinIn,WindSpeedMaxMPH,WindSpeedAvgMPH,GustSpeedMaxMPH,PrecipitationSumIn
2013-3-1,35,27,21,23,15,10,76,61,44,30.23,30.03,11,6,20,0.00
2013-3-2,33,22,15,16,10,5,68,58,47,30.26,30.12,11,5,17,0.00
2013-3-3,29,22,16,14,9,4,75,59,47,30.20,30.09,13,5,17,0.00
2013-3-4,37,24,13,16,11,6,78,59,41,30.32,30.14,11,4,18,0.00
2013-3-5,43,27,12,21,14,6,80,62,38,30.36,30.19,10,3,16,0.00
2013-3-6,45,35,26,29,24,18,79,66,48,30.41,30.19,9,4,13,0.00
2013-3-7,48,37,32,31,28,21,92,71,44,30.51,30.35,6,2,9,0.00
2013-3-8,50,38,28,33,28,21,96,71,39,30.64,30.51,9,2,13,0.04
2013-3-9,54,38,24,32,25,20,93,63,36,30.64,30.38,7,2,11,0.00
2013-3-10,61,47,36,33,30,25,78,54,34,30.38,30.12,7,2,11,0.00
2013-3-11,50,45,42,43,36,27,97,70,52,30.16,29.79,9,2,12,0.33
2013-3-12,44,38,33,43,30,21,97,74,58,30.11,29.82,12,4,18,0.00
2013-3-13,39,30,20,28,18,4,87,63,44,30.23,29.99,16,6,26,0.00
2013-3-14,36,24,13,9,2,-15,77,43,11,30.33,30.20,15,6,25,0.00
2013-3-15,42,32,22,26,16,7,74,53,39,30.29,29.92,18,5,26,0.00
2013-3-16,34,25,17,14,9,3,69,50,41,30.23,30.07,7,3,10,0.00
2013-3-17,35,24,15,12,6,-1,71,47,31,30.60,30.20,10,3,16,0.00
2013-3-18,33,26,15,31,13,-1,96,59,40,30.57,29.84,20,9,29,0.00
2013-3-19,35,30,24,34,23,12,98,74,51,30.04,29.78,13,5,18,0.04
2013-3-20,34,27,18,21,13,6,76,58,41,30.08,29.98,13,6,21,0.00
2013-3-21,34,24,14,26,13,6,80,64,52,30.06,29.88,10,4,17,0.00
2013-3-22,41,31,24,22,18,14,81,62,41,30.15,29.97,13,6,19,0.04
2013-3-23,43,33,27,24,20,15,80,59,39,30.28,30.12,10,4,17,0.00
2013-3-24,46,33,20,25,18,14,85,57,37,30.28,29.96,8,3,13,0.00
2013-3-25,47,38,31,23,20,18,59,49,38,30.00,29.85,13,5,19,0.00
2013-3-26,54,41,32,27,23,19,62,50,32,30.18,29.96,9,4,14,0.00
2013-3-27,47,37,32,31,26,19,87,64,45,30.30,30.11,12,5,19,0.00
2013-3-28,49,39,33,30,27,22,84,64,40,30.41,30.27,7,4,13,0.00
2013-3-29,57,43,31,27,23,12,75,49,26,30.42,30.29,13,3,17,0.00
2013-3-30,59,42,24,27,15,-10,77,42,6,30.43,30.16,10,2,15,0.00
2013-3-31,54,45,37,40,28,19,92,53,37,30.20,29.78,12,3,15,0.09